Time;durP1;ratioP1;P1;durP2;ratioP2;P2;SDS_P1;SDS_P2;PMS_P1;PMS_P2;Temp;Humidity;BMP_temperature;BMP_pressure;BME280_temperature;BME280_humidity;BME280_pressure;Samples;Min_cycle;Max_cycle;Signal;HPM_P1;HPM_P2
2023/12/29 00:00:36;;;;;;;2.22;0.98;;;10.00;99.90;;;;;;4989557;28;20038;-74
2023/12/29 00:03:02;;;;;;;1.85;0.80;;;10.00;99.90;;;;;;5011484;28;20049;-75
2023/12/29 00:05:28;;;;;;;5.25;0.88;;;10.00;99.90;;;;;;4981805;28;20046;-74
2023/12/29 00:07:54;;;;;;;3.58;0.68;;;10.00;99.90;;;;;;4996697;28;20122;-74
2023/12/29 00:10:19;;;;;;;7.07;1.52;;;10.10;99.90;;;;;;4998033;28;20080;-74
2023/12/29 00:12:45;;;;;;;5.30;1.15;;;10.00;99.90;;;;;;4997032;28;20083;-74
2023/12/29 00:15:11;;;;;;;5.97;1.23;;;10.00;99.90;;;;;;4998220;28;20046;-74
2023/12/29 00:17:39;;;;;;;2.60;0.40;;;10.10;99.90;;;;;;5013326;28;20073;-74
2023/12/29 00:20:07;;;;;;;8.63;1.63;;;10.00;99.90;;;;;;4996046;28;20098;-75
2023/12/29 00:22:33;;;;;;;1.75;0.60;;;10.00;99.90;;;;;;5077447;28;20108;-75
2023/12/29 00:24:59;;;;;;;1.55;0.82;;;9.90;99.90;;;;;;4996997;28;20080;-75
2023/12/29 00:27:25;;;;;;;0.93;0.47;;;9.80;99.90;;;;;;4981673;28;20049;-75
2023/12/29 00:29:50;;;;;;;3.58;0.90;;;9.80;99.90;;;;;;4980140;28;20042;-75
2023/12/29 00:32:16;;;;;;;1.75;1.00;;;9.80;99.90;;;;;;4981178;28;20046;-75
2023/12/29 00:34:42;;;;;;;3.13;0.90;;;9.70;99.90;;;;;;4996577;28;20045;-74
2023/12/29 00:37:08;;;;;;;6.18;1.02;;;9.70;99.90;;;;;;4993415;28;20088;-75
2023/12/29 00:39:38;;;;;;;6.97;1.08;;;9.60;99.90;;;;;;4988068;28;20076;-75
2023/12/29 00:42:06;;;;;;;3.50;1.05;;;9.60;99.90;;;;;;4985843;28;20041;-74
2023/12/29 00:44:32;;;;;;;4.57;0.98;;;9.60;99.90;;;;;;4997555;28;20046;-75
2023/12/29 00:46:59;;;;;;;10.68;1.05;;;9.60;99.90;;;;;;4994501;28;20057;-74
2023/12/29 00:49:25;;;;;;;1.20;0.80;;;9.60;99.90;;;;;;4995687;28;20069;-74
2023/12/29 00:51:50;;;;;;;7.13;1.20;;;9.70;99.90;;;;;;4959441;28;20062;-74
2023/12/29 00:54:16;;;;;;;6.70;1.30;;;9.60;99.90;;;;;;4963872;28;20504;-76
2023/12/29 00:56:42;;;;;;;5.03;1.85;;;9.60;99.90;;;;;;4980394;28;20145;-75
2023/12/29 00:59:07;;;;;;;8.38;0.95;;;9.60;99.90;;;;;;4983105;28;20062;-76
2023/12/29 01:01:37;;;;;;;3.40;1.30;;;9.50;99.90;;;;;;4967311;28;20065;-75
2023/12/29 01:04:03;;;;;;;5.60;1.30;;;9.50;99.90;;;;;;4998216;28;20045;-75
2023/12/29 01:06:29;;;;;;;3.78;0.75;;;9.50;99.90;;;;;;4983237;28;20506;-75
2023/12/29 01:08:55;;;;;;;3.83;1.13;;;9.50;99.90;;;;;;4999177;28;20045;-75
2023/12/29 01:11:21;;;;;;;7.72;1.63;;;9.50;99.90;;;;;;4994057;28;20117;-75
2023/12/29 01:13:46;;;;;;;5.82;1.00;;;9.50;99.90;;;;;;5002602;28;20053;-75
2023/12/29 01:16:12;;;;;;;10.65;1.50;;;9.50;99.90;;;;;;4983203;28;20498;-75
2023/12/29 01:18:38;;;;;;;7.32;1.30;;;9.50;99.90;;;;;;5014931;28;20057;-75
2023/12/29 01:21:03;;;;;;;11.68;1.58;;;9.40;99.90;;;;;;4998367;28;20046;-75
2023/12/29 01:23:29;;;;;;;5.15;1.33;;;9.40;99.90;;;;;;4997390;28;20626;-75
2023/12/29 01:25:55;;;;;;;3.70;1.00;;;9.50;99.90;;;;;;4999010;28;20046;-75
2023/12/29 01:28:21;;;;;;;2.88;1.13;;;9.50;99.90;;;;;;4998364;28;20053;-75
2023/12/29 01:30:47;;;;;;;3.55;1.42;;;9.50;99.90;;;;;;4998902;28;20081;-75
2023/12/29 01:33:12;;;;;;;11.15;1.60;;;9.60;99.90;;;;;;4962049;28;20096;-75
2023/12/29 01:35:39;;;;;;;11.13;1.30;;;9.60;99.90;;;;;;4999758;28;20112;-75
2023/12/29 01:38:04;;;;;;;1.70;0.65;;;9.60;99.90;;;;;;4998410;28;20042;-75
2023/12/29 01:40:30;;;;;;;2.47;0.70;;;9.60;99.90;;;;;;4979132;28;20043;-76
2023/12/29 01:42:56;;;;;;;1.10;0.43;;;9.70;99.90;;;;;;4996427;28;20069;-76
2023/12/29 01:45:23;;;;;;;6.47;0.52;;;9.70;99.90;;;;;;5014771;28;20129;-76
2023/12/29 01:47:50;;;;;;;2.47;0.80;;;9.70;99.90;;;;;;5000032;28;20046;-76
2023/12/29 01:50:19;;;;;;;5.57;1.02;;;9.80;99.90;;;;;;4998913;28;20052;-76
2023/12/29 01:52:48;;;;;;;3.78;0.68;;;9.70;99.90;;;;;;4998653;28;20054;-76
2023/12/29 01:55:18;;;;;;;13.43;1.05;;;9.70;99.90;;;;;;4998732;28;20034;-76
2023/12/29 01:57:45;;;;;;;3.38;0.60;;;9.70;99.90;;;;;;5016792;28;20071;-76
2023/12/29 02:00:11;;;;;;;5.97;0.95;;;9.70;99.90;;;;;;4999430;28;20161;-75
2023/12/29 02:02:37;;;;;;;9.88;1.20;;;9.70;99.90;;;;;;4982085;28;20056;-76
2023/12/29 02:05:04;;;;;;;3.30;0.73;;;9.70;99.90;;;;;;4982371;28;20430;-76
2023/12/29 02:07:31;;;;;;;6.65;1.40;;;9.70;99.90;;;;;;4982319;28;20494;-76
2023/12/29 02:09:59;;;;;;;1.55;0.95;;;9.70;99.90;;;;;;4967103;28;20038;-76
2023/12/29 02:12:25;;;;;;;6.75;1.15;;;9.70;99.90;;;;;;4982295;28;20045;-76
2023/12/29 02:14:51;;;;;;;3.75;1.02;;;9.70;99.90;;;;;;4983440;28;20046;-76
2023/12/29 02:17:27;;;;;;;8.73;1.48;;;9.80;99.90;;;;;;5015277;28;20050;-76
2023/12/29 02:19:54;;;;;;;9.50;0.73;;;9.80;99.90;;;;;;4983430;28;20070;-76
2023/12/29 02:22:19;;;;;;;5.78;1.15;;;9.80;99.90;;;;;;5006629;28;20126;-76
2023/12/29 02:24:51;;;;;;;6.35;1.65;;;9.80;99.90;;;;;;5006226;28;20577;-76
2023/12/29 02:27:47;;;;;;;4.90;0.77;;;9.90;99.90;;;;;;5017609;28;20083;-76
2023/12/29 02:30:22;;;;;;;3.40;0.75;;;9.90;99.90;;;;;;5009816;28;20042;-76
2023/12/29 02:32:50;;;;;;;2.65;0.68;;;9.90;99.90;;;;;;4998284;28;20054;-76
2023/12/29 02:35:24;;;;;;;5.40;1.30;;;9.90;99.90;;;;;;4989568;28;20504;-76
2023/12/29 02:37:50;;;;;;;5.72;1.77;;;9.90;99.90;;;;;;4992316;28;20041;-76
2023/12/29 02:40:16;;;;;;;7.35;0.80;;;9.90;99.90;;;;;;4994075;28;20100;-75
2023/12/29 02:42:47;;;;;;;2.20;1.23;;;10.00;99.90;;;;;;4992247;28;20050;-76
2023/12/29 02:45:13;;;;;;;7.80;1.30;;;10.00;99.90;;;;;;4977317;28;20049;-76
2023/12/29 02:47:39;;;;;;;5.32;0.80;;;10.00;99.90;;;;;;4977469;28;20042;-75
2023/12/29 02:50:05;;;;;;;13.40;1.42;;;10.00;99.90;;;;;;4994551;28;20152;-75
2023/12/29 02:52:30;;;;;;;9.15;1.38;;;10.10;99.90;;;;;;4978110;28;20453;-75
2023/12/29 02:54:56;;;;;;;6.10;1.98;;;10.10;99.90;;;;;;5004129;28;20053;-75
2023/12/29 02:57:21;;;;;;;3.58;1.13;;;10.10;99.90;;;;;;4976957;28;20092;-75
2023/12/29 02:59:47;;;;;;;2.08;0.93;;;10.10;99.90;;;;;;4975516;28;20046;-75
2023/12/29 03:02:13;;;;;;;8.45;1.75;;;10.10;99.90;;;;;;5010772;28;20106;-76
2023/12/29 03:04:38;;;;;;;7.07;0.82;;;10.10;99.90;;;;;;4975919;28;20046;-76
2023/12/29 03:07:04;;;;;;;1.77;1.23;;;10.10;99.90;;;;;;4981623;28;20038;-76
2023/12/29 03:09:30;;;;;;;4.82;0.95;;;10.00;99.90;;;;;;4999111;28;20071;-75
2023/12/29 03:11:56;;;;;;;2.85;1.33;;;10.00;99.90;;;;;;4965340;28;20050;-75
2023/12/29 03:14:21;;;;;;;7.95;1.33;;;10.00;99.90;;;;;;4982517;28;20038;-75
2023/12/29 03:16:47;;;;;;;2.90;1.00;;;10.00;99.90;;;;;;4997195;28;20042;-75
2023/12/29 03:19:13;;;;;;;9.15;1.73;;;9.90;99.90;;;;;;5015513;28;20042;-75
2023/12/29 03:21:38;;;;;;;6.70;0.98;;;9.80;99.90;;;;;;4981358;28;20438;-75
2023/12/29 03:24:04;;;;;;;8.13;1.27;;;9.70;99.90;;;;;;4981558;28;20046;-75
2023/12/29 03:26:30;;;;;;;0.93;0.52;;;9.70;99.90;;;;;;4998469;28;20068;-75
2023/12/29 03:28:56;;;;;;;3.67;0.93;;;9.60;99.90;;;;;;4982586;28;20042;-75
2023/12/29 03:31:21;;;;;;;8.43;1.15;;;9.60;99.90;;;;;;5014708;28;20608;-75
2023/12/29 03:33:48;;;;;;;6.15;0.98;;;9.50;99.90;;;;;;4981410;28;20050;-75
2023/12/29 03:36:14;;;;;;;0.90;0.68;;;9.50;99.90;;;;;;4998003;28;20046;-75
2023/12/29 03:38:39;;;;;;;1.70;1.10;;;9.50;99.90;;;;;;4992028;28;20061;-75
2023/12/29 03:41:05;;;;;;;4.47;0.70;;;9.50;99.90;;;;;;4992298;28;20049;-75
2023/12/29 03:43:31;;;;;;;3.70;1.05;;;9.50;99.90;;;;;;4976158;28;20532;-75
2023/12/29 03:45:56;;;;;;;2.90;1.17;;;9.60;99.90;;;;;;4997263;28;20115;-75
2023/12/29 03:48:22;;;;;;;4.18;0.90;;;9.60;99.90;;;;;;4977997;28;20042;-75
2023/12/29 03:50:48;;;;;;;6.13;1.52;;;9.60;99.90;;;;;;4961185;28;20129;-75
2023/12/29 03:53:14;;;;;;;11.35;1.58;;;9.60;99.90;;;;;;4993039;28;20075;-75
2023/12/29 03:55:41;;;;;;;8.65;0.95;;;9.60;99.90;;;;;;4990618;28;20089;-75
2023/12/29 03:58:06;;;;;;;5.10;1.02;;;9.60;99.90;;;;;;4976569;28;20067;-75
2023/12/29 04:00:32;;;;;;;13.43;1.98;;;9.60;99.90;;;;;;4991427;28;20042;-75
2023/12/29 04:02:58;;;;;;;9.27;1.48;;;9.60;99.90;;;;;;4992058;28;20037;-75
2023/12/29 04:05:23;;;;;;;13.20;1.70;;;9.80;99.90;;;;;;4992673;28;20072;-75
2023/12/29 04:07:49;;;;;;;9.63;1.33;;;9.70;99.90;;;;;;4988929;28;20039;-75
2023/12/29 04:10:15;;;;;;;5.32;1.27;;;9.80;99.90;;;;;;4988809;28;20070;-75
2023/12/29 04:12:41;;;;;;;5.35;1.73;;;9.70;99.90;;;;;;4990062;28;20041;-75
2023/12/29 04:15:07;;;;;;;10.48;1.83;;;9.70;99.90;;;;;;4974189;28;20056;-76
2023/12/29 04:17:33;;;;;;;12.55;1.60;;;9.70;99.90;;;;;;4993888;28;20169;-76
2023/12/29 04:19:59;;;;;;;11.55;1.55;;;9.60;99.90;;;;;;4961646;28;20046;-76
2023/12/29 04:22:25;;;;;;;8.93;1.70;;;9.60;99.90;;;;;;4961829;28;20049;-75
2023/12/29 04:24:51;;;;;;;9.43;1.60;;;9.50;99.90;;;;;;4991973;28;20050;-75
2023/12/29 04:27:17;;;;;;;10.57;1.02;;;9.50;99.90;;;;;;4975635;28;20347;-75
2023/12/29 04:29:44;;;;;;;5.22;1.45;;;9.50;99.90;;;;;;4991561;28;20042;-75
2023/12/29 04:32:10;;;;;;;5.22;1.60;;;9.50;99.90;;;;;;4992264;28;20046;-75
2023/12/29 04:34:37;;;;;;;5.75;1.20;;;9.40;99.90;;;;;;4994248;28;20087;-75
2023/12/29 04:37:03;;;;;;;9.77;1.50;;;9.40;99.90;;;;;;4975951;28;20046;-75
2023/12/29 04:39:28;;;;;;;5.18;1.00;;;9.40;99.90;;;;;;4994864;28;20081;-75
2023/12/29 04:41:54;;;;;;;3.22;1.30;;;9.40;99.90;;;;;;4978520;28;20125;-75
2023/12/29 04:44:20;;;;;;;10.57;1.40;;;9.40;99.90;;;;;;4996957;28;20046;-75
2023/12/29 04:46:45;;;;;;;6.32;1.15;;;9.40;99.90;;;;;;4977370;28;20102;-75
2023/12/29 04:49:11;;;;;;;9.40;1.67;;;9.40;99.90;;;;;;5011519;28;20046;-75
2023/12/29 04:51:37;;;;;;;9.00;0.85;;;9.30;99.90;;;;;;4962186;28;20410;-75
2023/12/29 04:54:02;;;;;;;8.10;1.00;;;9.30;99.90;;;;;;4978657;28;20078;-75
2023/12/29 04:56:28;;;;;;;3.58;1.20;;;9.30;99.90;;;;;;5011931;28;20046;-75
2023/12/29 04:58:56;;;;;;;4.32;1.10;;;9.30;99.90;;;;;;5009260;28;20097;-75
2023/12/29 05:01:22;;;;;;;10.30;1.77;;;9.30;99.90;;;;;;4993973;28;20046;-75
2023/12/29 05:03:48;;;;;;;18.33;2.30;;;9.30;99.90;;;;;;4976683;28;20051;-75
2023/12/29 05:06:13;;;;;;;5.30;1.48;;;9.30;99.90;;;;;;4996282;28;20046;-75
2023/12/29 05:08:39;;;;;;;6.88;1.25;;;9.20;99.90;;;;;;5078928;28;20045;-75
2023/12/29 05:11:04;;;;;;;7.80;1.10;;;9.30;99.90;;;;;;4995650;28;20049;-75
2023/12/29 05:13:30;;;;;;;12.55;1.95;;;9.20;99.90;;;;;;4970169;28;20111;-75
2023/12/29 05:15:56;;;;;;;5.80;1.67;;;9.30;99.90;;;;;;4995177;28;20432;-75
2023/12/29 05:18:22;;;;;;;13.35;1.90;;;9.20;99.90;;;;;;4994092;28;20039;-75
2023/12/29 05:20:47;;;;;;;7.15;1.13;;;9.30;99.90;;;;;;4994413;28;20096;-75
2023/12/29 05:23:13;;;;;;;7.75;1.20;;;9.30;99.90;;;;;;4983601;28;20102;-75
2023/12/29 05:25:39;;;;;;;9.48;1.02;;;9.30;99.90;;;;;;4964009;28;20203;-75
2023/12/29 05:28:05;;;;;;;12.20;2.17;;;9.30;99.90;;;;;;4982647;28;20037;-75
2023/12/29 05:30:32;;;;;;;17.55;2.10;;;9.30;99.90;;;;;;4983678;28;20115;-75
2023/12/29 05:32:57;;;;;;;6.07;0.68;;;9.30;99.90;;;;;;4999004;28;20064;-75
2023/12/29 05:35:23;;;;;;;11.15;1.55;;;9.30;99.90;;;;;;4968272;28;20133;-75
2023/12/29 05:37:50;;;;;;;8.52;1.52;;;9.30;99.90;;;;;;4983131;28;20046;-75
2023/12/29 05:40:16;;;;;;;8.30;1.80;;;9.30;99.90;;;;;;4984589;28;20049;-75
2023/12/29 05:42:41;;;;;;;5.80;1.35;;;9.30;99.90;;;;;;4999121;28;20049;-75
2023/12/29 05:45:08;;;;;;;8.75;2.20;;;9.40;99.90;;;;;;4983932;28;20071;-75
2023/12/29 05:47:33;;;;;;;8.43;1.80;;;9.40;99.90;;;;;;4967549;28;20052;-75
2023/12/29 05:49:59;;;;;;;10.82;1.55;;;9.40;99.90;;;;;;4998662;28;20445;-75
2023/12/29 05:52:25;;;;;;;14.88;1.92;;;9.40;99.90;;;;;;4967152;28;20612;-75
2023/12/29 05:54:50;;;;;;;18.30;1.55;;;9.40;99.90;;;;;;4993269;28;20034;-75
2023/12/29 05:57:16;;;;;;;13.50;1.42;;;9.40;99.90;;;;;;4995635;28;21455;-75
2023/12/29 05:59:42;;;;;;;3.42;1.58;;;9.40;99.90;;;;;;4990484;28;20076;-75
2023/12/29 06:02:07;;;;;;;7.15;1.50;;;9.40;99.90;;;;;;4978715;28;20046;-75
2023/12/29 06:04:33;;;;;;;5.65;1.15;;;9.40;99.90;;;;;;4976342;28;20037;-75
2023/12/29 06:07:00;;;;;;;5.72;1.02;;;9.50;99.90;;;;;;4992812;28;20117;-75
2023/12/29 06:09:26;;;;;;;7.35;1.35;;;9.50;99.90;;;;;;4977478;28;20061;-75
2023/12/29 06:11:51;;;;;;;11.52;1.45;;;9.50;99.90;;;;;;4984047;28;20128;-75
2023/12/29 06:14:17;;;;;;;6.93;1.00;;;9.50;99.90;;;;;;5008297;28;20049;-75
2023/12/29 06:16:43;;;;;;;16.33;2.17;;;9.50;99.90;;;;;;4960180;28;20041;-75
2023/12/29 06:19:09;;;;;;;10.68;2.05;;;9.50;99.90;;;;;;4961366;28;20040;-75
2023/12/29 06:21:42;;;;;;;7.70;1.92;;;9.50;99.90;;;;;;4976905;28;20046;-75
2023/12/29 06:24:08;;;;;;;7.80;1.55;;;9.50;99.90;;;;;;4993449;28;20447;-75
2023/12/29 06:26:33;;;;;;;15.02;2.20;;;9.50;99.90;;;;;;4979761;28;20053;-75
2023/12/29 06:28:59;;;;;;;7.55;2.03;;;9.50;99.90;;;;;;4993483;28;20063;-75
2023/12/29 06:31:25;;;;;;;10.18;2.20;;;9.50;99.90;;;;;;4992723;28;20509;-75
2023/12/29 06:33:51;;;;;;;14.70;2.30;;;9.50;99.90;;;;;;4993308;28;20053;-75
2023/12/29 06:36:16;;;;;;;4.97;1.38;;;9.50;99.90;;;;;;4996588;28;20124;-75
2023/12/29 06:38:45;;;;;;;6.43;1.70;;;9.50;99.90;;;;;;4982924;28;20432;-75
2023/12/29 06:41:12;;;;;;;8.73;1.38;;;9.50;99.90;;;;;;4983333;28;20045;-75
2023/12/29 06:43:38;;;;;;;11.10;1.75;;;9.50;99.90;;;;;;5007308;28;20113;-75
2023/12/29 06:46:04;;;;;;;11.75;1.25;;;9.50;99.90;;;;;;4988671;28;20442;-75
2023/12/29 06:48:29;;;;;;;10.57;2.72;;;9.50;99.90;;;;;;4993367;28;20074;-75
2023/12/29 06:50:55;;;;;;;15.40;2.72;;;9.50;99.90;;;;;;4992473;28;20038;-76
2023/12/29 06:53:21;;;;;;;16.00;1.42;;;9.50;99.90;;;;;;4990416;28;20045;-75
2023/12/29 06:55:47;;;;;;;10.63;1.25;;;9.50;99.90;;;;;;4989484;28;20038;-75
2023/12/29 06:58:12;;;;;;;10.23;1.88;;;9.50;99.90;;;;;;4977020;28;20054;-75
2023/12/29 07:00:38;;;;;;;13.95;2.30;;;9.50;99.90;;;;;;4962034;28;20042;-75
2023/12/29 07:03:04;;;;;;;6.47;1.65;;;9.50;99.90;;;;;;4976004;28;20575;-75
2023/12/29 07:05:30;;;;;;;5.18;1.90;;;9.40;99.90;;;;;;4995692;28;20042;-75
2023/12/29 07:07:55;;;;;;;5.57;2.13;;;9.40;99.90;;;;;;4981543;28;20045;-75
2023/12/29 07:10:21;;;;;;;12.40;2.13;;;9.40;99.90;;;;;;4966702;28;20049;-75
2023/12/29 07:12:47;;;;;;;5.15;2.47;;;9.30;99.90;;;;;;5032400;28;20086;-75
2023/12/29 07:15:15;;;;;;;6.22;1.42;;;9.30;99.90;;;;;;4982405;28;20046;-75
2023/12/29 07:17:41;;;;;;;7.93;1.55;;;9.30;99.90;;;;;;5014873;28;20394;-75
2023/12/29 07:20:08;;;;;;;7.57;1.55;;;9.20;99.90;;;;;;4997217;28;20041;-75
2023/12/29 07:22:33;;;;;;;10.38;1.67;;;9.20;99.90;;;;;;4983334;28;20513;-75
2023/12/29 07:24:59;;;;;;;11.90;1.98;;;9.20;99.90;;;;;;4997408;28;20034;-76
2023/12/29 07:27:25;;;;;;;11.65;1.33;;;9.20;99.90;;;;;;4982834;28;20049;-75
2023/12/29 07:29:51;;;;;;;12.05;1.77;;;9.20;99.90;;;;;;4966328;28;20038;-75
2023/12/29 07:32:17;;;;;;;6.88;1.33;;;9.20;99.90;;;;;;4998770;28;20062;-75
2023/12/29 07:34:44;;;;;;;8.65;1.45;;;9.30;99.90;;;;;;4998250;28;20415;-75
2023/12/29 07:37:09;;;;;;;14.95;2.50;;;9.30;99.90;;;;;;4978449;28;20081;-75
2023/12/29 07:39:37;;;;;;;6.75;1.00;;;9.30;99.90;;;;;;4974151;28;20486;-75
2023/12/29 07:42:02;;;;;;;15.85;1.33;;;9.30;99.90;;;;;;5008665;28;20091;-75
2023/12/29 07:44:28;;;;;;;7.55;2.13;;;9.30;99.90;;;;;;4993539;28;20042;-75
2023/12/29 07:46:56;;;;;;;14.40;2.05;;;9.30;99.90;;;;;;4991254;28;20443;-75
2023/12/29 07:49:22;;;;;;;13.82;1.63;;;9.30;99.90;;;;;;4993890;28;20531;-76
2023/12/29 07:51:48;;;;;;;9.55;1.33;;;9.30;99.90;;;;;;4989840;28;20034;-75
2023/12/29 07:54:13;;;;;;;6.60;1.95;;;9.30;99.90;;;;;;4975848;28;20104;-75
2023/12/29 07:56:39;;;;;;;10.10;1.85;;;9.30;99.90;;;;;;5009263;28;20046;-75
2023/12/29 07:59:06;;;;;;;7.78;1.23;;;9.40;99.90;;;;;;5003967;28;20038;-75
2023/12/29 08:01:32;;;;;;;3.20;1.17;;;9.40;99.90;;;;;;4991517;28;20038;-76
2023/12/29 08:03:57;;;;;;;23.50;1.90;;;9.40;99.90;;;;;;4990121;28;20057;-75
2023/12/29 08:06:23;;;;;;;10.35;1.75;;;9.40;99.90;;;;;;4988882;28;20129;-76
2023/12/29 08:08:49;;;;;;;19.17;2.28;;;9.40;99.90;;;;;;4978606;28;20061;-75
2023/12/29 08:11:16;;;;;;;6.40;1.50;;;9.50;99.90;;;;;;4995498;28;20184;-76
2023/12/29 08:13:44;;;;;;;5.32;1.45;;;9.50;99.90;;;;;;5011707;28;20045;-75
2023/12/29 08:16:10;;;;;;;3.35;1.08;;;9.50;99.90;;;;;;5009373;28;20754;-75
2023/12/29 08:18:35;;;;;;;13.23;1.38;;;9.50;99.90;;;;;;5079963;28;20062;-76
2023/12/29 08:21:02;;;;;;;10.95;1.48;;;9.60;99.90;;;;;;4979757;28;20067;-75
2023/12/29 08:23:27;;;;;;;8.25;1.83;;;9.60;99.90;;;;;;5000713;28;20578;-75
2023/12/29 08:25:53;;;;;;;10.25;1.20;;;9.60;99.90;;;;;;5011555;28;20049;-75
2023/12/29 08:28:19;;;;;;;7.95;1.38;;;9.60;99.90;;;;;;4962758;28;20053;-75
2023/12/29 08:30:47;;;;;;;5.88;1.38;;;9.60;99.90;;;;;;4964824;28;20046;-75
2023/12/29 08:33:13;;;;;;;4.53;1.33;;;9.60;99.90;;;;;;4994980;28;20099;-75
2023/12/29 08:35:44;;;;;;;9.07;1.42;;;9.60;99.90;;;;;;4980250;28;20050;-76
2023/12/29 08:38:09;;;;;;;5.38;1.15;;;9.60;99.90;;;;;;5010894;28;20046;-75
2023/12/29 08:40:35;;;;;;;7.80;1.40;;;9.60;99.90;;;;;;4978288;28;20103;-75
2023/12/29 08:43:01;;;;;;;11.35;1.45;;;9.50;99.90;;;;;;4990869;28;20249;-75
2023/12/29 08:45:27;;;;;;;12.35;1.30;;;9.60;99.90;;;;;;4993398;28;20103;-75
2023/12/29 08:47:54;;;;;;;8.15;1.98;;;9.60;99.90;;;;;;4993756;28;20049;-75
2023/12/29 08:50:19;;;;;;;10.43;1.20;;;9.60;99.90;;;;;;4992888;28;20048;-75
2023/12/29 08:52:45;;;;;;;8.85;1.40;;;9.60;99.90;;;;;;5009789;28;20066;-75
2023/12/29 08:55:11;;;;;;;2.17;1.02;;;9.60;99.90;;;;;;4978109;28;20050;-75
2023/12/29 08:57:36;;;;;;;4.60;0.95;;;9.70;99.90;;;;;;4961540;28;20034;-75
2023/12/29 09:00:03;;;;;;;2.17;0.88;;;9.70;99.90;;;;;;4993484;28;20046;-74
2023/12/29 09:02:29;;;;;;;9.30;1.55;;;9.70;99.90;;;;;;4972804;28;20123;-75
2023/12/29 09:04:54;;;;;;;13.85;1.40;;;9.80;99.90;;;;;;5080251;28;20054;-75
2023/12/29 09:07:20;;;;;;;8.18;0.98;;;9.70;99.90;;;;;;4975993;28;21476;-75
2023/12/29 09:09:46;;;;;;;3.83;0.95;;;9.80;99.90;;;;;;4997562;28;20045;-75
2023/12/29 09:12:11;;;;;;;5.22;1.58;;;9.80;99.90;;;;;;5017811;28;20050;-75
2023/12/29 09:14:37;;;;;;;7.07;2.30;;;9.80;99.90;;;;;;5018451;28;20046;-75
2023/12/29 09:17:03;;;;;;;4.40;0.95;;;9.80;99.90;;;;;;4983438;28;20034;-75
2023/12/29 09:19:29;;;;;;;2.05;0.82;;;9.80;99.90;;;;;;4966967;28;20059;-75
2023/12/29 09:21:54;;;;;;;7.57;1.13;;;9.80;99.90;;;;;;4984675;28;20045;-75
2023/12/29 09:24:20;;;;;;;3.30;1.10;;;9.80;99.90;;;;;;4984118;28;20042;-75
2023/12/29 09:26:46;;;;;;;9.48;1.85;;;9.90;99.90;;;;;;4981287;28;20074;-75
2023/12/29 09:29:11;;;;;;;5.60;1.40;;;9.90;99.90;;;;;;4999324;28;20037;-75
2023/12/29 09:31:37;;;;;;;1.02;0.63;;;9.90;99.90;;;;;;4991870;28;20646;-75
2023/12/29 09:34:03;;;;;;;2.92;0.88;;;9.90;99.90;;;;;;4994311;28;20748;-75
2023/12/29 09:36:28;;;;;;;7.13;1.52;;;9.90;99.90;;;;;;5000131;28;20089;-75
2023/12/29 09:38:54;;;;;;;4.78;1.55;;;9.90;99.90;;;;;;5000190;28;20065;-75
2023/12/29 09:41:23;;;;;;;5.60;1.52;;;9.90;99.90;;;;;;4999550;28;20046;-75
2023/12/29 09:43:50;;;;;;;4.88;1.10;;;10.00;99.90;;;;;;5000081;28;20223;-75
2023/12/29 09:46:18;;;;;;;1.73;0.60;;;10.00;99.90;;;;;;4999070;28;20070;-75
2023/12/29 09:48:47;;;;;;;6.60;1.67;;;9.90;99.90;;;;;;4993208;28;20381;-75
2023/12/29 09:51:15;;;;;;;4.25;0.98;;;9.90;99.90;;;;;;4996933;28;20568;-75
2023/12/29 09:53:41;;;;;;;4.53;1.00;;;9.90;99.90;;;;;;4992785;28;20041;-75
2023/12/29 09:56:08;;;;;;;3.40;1.40;;;9.90;99.90;;;;;;4999905;28;20486;-75
2023/12/29 09:58:37;;;;;;;5.72;1.40;;;9.90;99.90;;;;;;4993066;28;20042;-75
2023/12/29 10:01:06;;;;;;;3.33;0.52;;;9.80;99.90;;;;;;4994092;28;20046;-75
2023/12/29 10:03:33;;;;;;;2.83;0.77;;;9.80;99.90;;;;;;4992508;28;20038;-75
2023/12/29 10:06:00;;;;;;;2.33;0.63;;;9.80;99.90;;;;;;5009724;28;20456;-75
2023/12/29 10:08:28;;;;;;;4.65;0.60;;;9.70;99.90;;;;;;4990959;28;20046;-75
2023/12/29 10:10:57;;;;;;;2.45;0.57;;;9.70;99.90;;;;;;4993366;28;20046;-75
2023/12/29 10:13:24;;;;;;;2.90;0.63;;;9.60;99.90;;;;;;4991672;28;20091;-76
2023/12/29 10:16:12;;;;;;;4.70;0.73;;;9.50;99.90;;;;;;4988622;28;20197;-76
2023/12/29 10:18:49;;;;;;;3.33;0.57;;;9.40;99.90;;;;;;5005049;28;20068;-76
2023/12/29 10:21:29;;;;;;;0.47;0.22;;;9.30;99.90;;;;;;4998358;28;20494;-76
2023/12/29 10:24:20;;;;;;;6.00;1.60;;;9.10;99.90;;;;;;4998768;28;20050;-75
2023/12/29 10:26:46;;;;;;;4.25;0.93;;;9.00;99.90;;;;;;5003396;28;20066;-75
2023/12/29 10:29:12;;;;;;;0.75;0.30;;;8.80;99.90;;;;;;4982052;28;20048;-76
2023/12/29 10:31:38;;;;;;;4.55;0.35;;;8.70;99.90;;;;;;4994960;28;20036;-75
2023/12/29 10:34:28;;;;;;;4.57;0.68;;;8.60;99.90;;;;;;4993445;28;20042;-75
2023/12/29 10:36:54;;;;;;;2.95;0.65;;;8.60;99.90;;;;;;4977895;28;20088;-76
2023/12/29 10:39:19;;;;;;;4.15;0.45;;;8.60;99.90;;;;;;5007971;28;20034;-75
2023/12/29 10:41:45;;;;;;;3.35;0.35;;;8.60;99.90;;;;;;4981816;28;20045;-75
2023/12/29 10:44:11;;;;;;;8.07;0.73;;;8.60;99.90;;;;;;4992972;28;20054;-76
2023/12/29 10:46:37;;;;;;;2.53;0.55;;;8.60;99.90;;;;;;4996154;28;20046;-76
2023/12/29 10:49:10;;;;;;;2.38;0.40;;;8.70;99.90;;;;;;4991324;28;20084;-75
2023/12/29 10:51:39;;;;;;;2.80;0.85;;;8.70;99.90;;;;;;5015024;28;20041;-75
2023/12/29 10:54:05;;;;;;;4.38;0.52;;;8.70;99.90;;;;;;4997997;28;20030;-75
2023/12/29 10:56:34;;;;;;;5.22;1.23;;;8.70;99.90;;;;;;4997355;28;20118;-75
2023/12/29 10:59:04;;;;;;;2.97;0.70;;;8.80;99.90;;;;;;4998053;28;20391;-75
2023/12/29 11:01:32;;;;;;;3.10;0.60;;;8.80;99.90;;;;;;4999178;28;20042;-75
2023/12/29 11:04:05;;;;;;;3.42;0.60;;;8.90;99.90;;;;;;4981777;28;20543;-75
2023/12/29 11:06:46;;;;;;;0.88;0.63;;;9.00;99.90;;;;;;4999058;28;20054;-75
2023/12/29 11:09:12;;;;;;;1.58;0.60;;;9.10;99.90;;;;;;4997788;28;20043;-75
2023/12/29 11:11:38;;;;;;;2.55;1.02;;;9.20;99.90;;;;;;4990832;28;20056;-76
2023/12/29 11:14:04;;;;;;;7.30;0.98;;;9.30;99.90;;;;;;5013176;28;20495;-75
2023/12/29 11:16:31;;;;;;;11.05;0.95;;;9.30;99.90;;;;;;4990330;28;20052;-75
2023/12/29 11:18:58;;;;;;;4.28;1.05;;;9.40;99.90;;;;;;4998392;28;20072;-75
2023/12/29 11:21:27;;;;;;;1.83;0.90;;;9.50;99.90;;;;;;5010821;28;20045;-75
2023/12/29 11:23:53;;;;;;;5.40;0.47;;;9.50;99.90;;;;;;5013908;28;20053;-75
2023/12/29 11:26:20;;;;;;;8.02;0.80;;;9.60;99.90;;;;;;4982688;28;20038;-75
2023/12/29 11:28:49;;;;;;;1.88;1.05;;;9.60;99.90;;;;;;4995398;28;20075;-76
2023/12/29 11:31:17;;;;;;;3.10;0.93;;;9.60;99.90;;;;;;5080032;28;20045;-75
2023/12/29 11:33:50;;;;;;;5.68;1.33;;;9.60;99.90;;;;;;4995277;28;20050;-75
2023/12/29 11:36:33;;;;;;;12.63;1.20;;;9.60;99.90;;;;;;4995705;28;20110;-75
2023/12/29 11:39:24;;;;;;;18.58;1.13;;;9.60;99.90;;;;;;5005943;28;20046;-75
2023/12/29 11:42:06;;;;;;;4.07;0.93;;;9.60;99.90;;;;;;4994165;28;20050;-76
2023/12/29 11:44:33;;;;;;;5.47;1.00;;;9.70;99.90;;;;;;4996518;28;20049;-75
2023/12/29 11:47:00;;;;;;;10.32;1.15;;;9.70;99.90;;;;;;4995437;28;20060;-75
2023/12/29 11:49:25;;;;;;;1.15;0.68;;;9.70;99.90;;;;;;4997997;28;20081;-75
2023/12/29 11:51:51;;;;;;;4.95;0.80;;;9.80;99.90;;;;;;4980715;28;20057;-75
2023/12/29 11:54:25;;;;;;;9.80;1.25;;;9.90;99.90;;;;;;4999881;28;20046;-76
2023/12/29 11:56:52;;;;;;;10.38;2.25;;;9.90;99.90;;;;;;4996688;28;20062;-75
2023/12/29 11:59:23;;;;;;;7.43;1.00;;;9.90;99.90;;;;;;4993853;28;20461;-75
2023/12/29 12:01:49;;;;;;;7.70;1.10;;;10.00;99.90;;;;;;5014139;28;20114;-75
2023/12/29 12:04:35;;;;;;;4.70;0.60;;;10.00;99.90;;;;;;5081048;28;20050;-75
2023/12/29 12:07:01;;;;;;;16.75;1.50;;;10.10;99.90;;;;;;4994999;28;20332;-75
2023/12/29 12:09:27;;;;;;;9.00;1.45;;;10.10;99.90;;;;;;5001338;28;20110;-75
2023/12/29 12:11:53;;;;;;;9.15;1.92;;;10.10;99.90;;;;;;5012459;28;20050;-75
2023/12/29 12:14:51;;;;;;;2.28;0.95;;;10.20;99.90;;;;;;4982466;28;20046;-75
2023/12/29 12:17:33;;;;;;;14.38;1.10;;;10.20;99.90;;;;;;4994329;28;20046;-75
2023/12/29 12:20:09;;;;;;;6.25;0.90;;;10.20;99.90;;;;;;4992919;28;20069;-75
2023/12/29 12:22:35;;;;;;;6.57;0.75;;;10.20;99.90;;;;;;4990779;28;20559;-75
2023/12/29 12:25:03;;;;;;;4.50;0.57;;;10.20;99.90;;;;;;4996685;28;20109;-75
2023/12/29 12:27:30;;;;;;;4.97;1.48;;;10.20;99.90;;;;;;5012786;28;20058;-75
2023/12/29 12:29:59;;;;;;;5.35;0.98;;;10.20;99.90;;;;;;4996290;28;20030;-75
2023/12/29 12:32:29;;;;;;;6.30;1.42;;;10.20;99.90;;;;;;4994605;28;20054;-74
2023/12/29 12:34:56;;;;;;;3.45;0.80;;;10.20;99.90;;;;;;4997602;28;20155;-75
2023/12/29 12:37:29;;;;;;;3.28;0.82;;;10.20;99.90;;;;;;4959183;28;20034;-74
2023/12/29 12:39:55;;;;;;;5.22;0.63;;;10.20;99.90;;;;;;5013928;28;20102;-75
2023/12/29 12:42:22;;;;;;;4.22;0.90;;;10.30;99.90;;;;;;4980751;28;20599;-75
2023/12/29 12:45:09;;;;;;;6.22;1.92;;;10.30;99.90;;;;;;4997751;28;20490;-75
2023/12/29 12:47:52;;;;;;;3.70;0.85;;;10.30;99.90;;;;;;5011651;28;20060;-75
2023/12/29 12:50:18;;;;;;;8.88;0.73;;;10.30;99.90;;;;;;4996420;28;20052;-75
2023/12/29 12:52:45;;;;;;;8.82;1.67;;;10.30;99.90;;;;;;5049104;28;20045;-75